createdAt,value
2022-12-09T05:03:57.138Z,37.67
2022-12-09T05:06:25.982Z,36.35
2022-12-09T05:08:55.669Z,35.65
2022-12-09T05:11:24.268Z,36.13
2022-12-09T05:13:56.032Z,36.00
2022-12-09T05:16:24.206Z,34.55
2022-12-09T05:18:52.438Z,34.85
2022-12-09T05:21:21.699Z,35.95
2022-12-09T05:23:49.827Z,36.15
2022-12-09T05:26:20.778Z,36.28
2022-12-09T05:28:48.803Z,36.72
2022-12-09T05:31:20.010Z,34.88
2022-12-09T05:33:49.632Z,36.38
2022-12-09T05:36:24.540Z,37.63
2022-12-09T05:38:53.351Z,36.45
2022-12-09T05:41:21.645Z,35.95
2022-12-09T05:43:49.501Z,35.33
2022-12-09T05:46:17.405Z,35.47
2022-12-09T05:48:45.150Z,36.33
2022-12-09T05:51:22.435Z,36.58
2022-12-09T05:53:49.878Z,35.88
2022-12-09T05:56:19.057Z,37.28
2022-12-09T05:58:48.057Z,35.63
2022-12-09T06:01:16.185Z,37.38
2022-12-09T06:03:46.448Z,38.58
2022-12-09T06:06:17.205Z,41.83
2022-12-09T06:08:46.096Z,41.85
2022-12-09T06:11:16.827Z,72.53
2022-12-09T06:13:45.954Z,43.47
2022-12-09T06:16:15.335Z,42.13
2022-12-09T06:18:42.968Z,58.72
2022-12-09T06:21:13.363Z,38.53
2022-12-09T06:23:42.308Z,36.83
2022-12-09T06:26:21.669Z,55.03
2022-12-09T06:28:49.546Z,35.85
2022-12-09T06:31:18.101Z,38.83
2022-12-09T06:33:54.645Z,34.05
2022-12-09T06:36:23.485Z,36.45
2022-12-09T06:38:51.340Z,41.88
2022-12-09T06:41:18.801Z,38.33
2022-12-09T06:43:47.499Z,75.68
2022-12-09T06:46:18.663Z,34.00
2022-12-09T06:48:47.062Z,33.80
2022-12-09T06:51:15.687Z,35.65
2022-12-09T06:53:44.275Z,34.33
2022-12-09T06:56:13.515Z,34.63
2022-12-09T06:58:43.066Z,37.70
2022-12-09T07:01:18.315Z,36.83
2022-12-09T07:03:49.479Z,36.35
2022-12-09T07:06:38.614Z,32.15
2022-12-09T07:09:19.975Z,31.92
2022-12-09T07:11:48.896Z,31.27
2022-12-09T07:14:18.328Z,30.52
2022-12-09T07:16:46.924Z,32.83
2022-12-09T07:19:21.303Z,32.83
2022-12-09T07:21:50.356Z,31.92
2022-12-09T07:24:20.198Z,30.25
2022-12-09T07:26:47.802Z,29.48
2022-12-09T07:29:15.942Z,27.45
2022-12-09T07:31:45.270Z,27.10
2022-12-09T07:34:13.017Z,29.13
2022-12-09T07:36:41.518Z,29.60
2022-12-09T07:39:13.444Z,29.98
2022-12-09T07:41:41.434Z,32.05
2022-12-09T07:44:11.132Z,31.65
2022-12-09T07:46:40.134Z,32.13
2022-12-09T07:49:08.415Z,35.95
2022-12-09T07:51:36.272Z,33.42
2022-12-09T07:54:04.222Z,31.75
2022-12-09T07:56:31.624Z,31.63
2022-12-09T07:59:00.068Z,30.08
2022-12-09T08:01:30.205Z,30.33
2022-12-09T08:03:58.685Z,31.83
2022-12-09T08:06:28.708Z,29.17
2022-12-09T08:09:02.936Z,30.67
2022-12-09T08:11:32.892Z,29.73
2022-12-09T08:14:09.019Z,31.23
2022-12-09T08:16:39.170Z,30.60
2022-12-09T08:19:07.161Z,30.15
2022-12-09T08:21:35.189Z,30.05
2022-12-09T08:24:05.935Z,29.55
2022-12-09T08:26:37.626Z,27.90
2022-12-09T08:29:11.110Z,26.60
2022-12-09T08:31:42.290Z,28.52
2022-12-09T08:34:10.396Z,28.52
2022-12-09T08:36:38.722Z,25.65
2022-12-09T08:39:07.396Z,24.65
2022-12-09T08:41:38.592Z,25.65
2022-12-09T08:44:12.168Z,29.20
2022-12-09T08:46:43.637Z,26.00
2022-12-09T08:49:12.754Z,24.83
2022-12-09T08:51:40.546Z,25.83
2022-12-09T08:54:08.022Z,25.52
2022-12-09T08:56:36.103Z,26.13
2022-12-09T08:59:04.244Z,25.00
2022-12-09T09:01:34.891Z,25.35
2022-12-09T09:04:09.894Z,25.37
2022-12-09T09:06:40.526Z,23.08
2022-12-09T09:09:10.893Z,19.67
2022-12-09T09:11:39.456Z,19.02
2022-12-09T09:14:09.502Z,20.17
2022-12-09T09:16:40.908Z,19.08
2022-12-09T09:19:10.567Z,19.80
2022-12-09T09:21:38.531Z,17.42
2022-12-09T09:24:11.495Z,14.63
2022-12-09T09:26:41.840Z,13.63
2022-12-09T09:29:15.986Z,14.30
2022-12-09T09:31:44.215Z,28.77
2022-12-09T09:34:12.307Z,15.57
2022-12-09T09:36:41.259Z,12.30
2022-12-09T09:39:09.749Z,13.80
2022-12-09T09:41:58.706Z,13.10
2022-12-09T09:44:40.146Z,14.50
2022-12-09T09:47:11.621Z,13.57
2022-12-09T09:50:09.412Z,13.48
2022-12-09T09:52:41.460Z,13.75
2022-12-09T09:57:50.601Z,14.98
2022-12-09T10:00:28.850Z,16.08
2022-12-09T10:03:01.449Z,15.52
2022-12-09T10:05:34.111Z,16.25
2022-12-09T10:08:25.740Z,16.52
2022-12-09T10:11:38.550Z,18.23
2022-12-09T10:14:19.353Z,27.90
2022-12-09T10:17:11.709Z,14.55
2022-12-09T10:22:18.769Z,13.80
2022-12-09T10:24:53.528Z,10.63
2022-12-09T10:27:48.588Z,10.00
2022-12-09T10:30:19.647Z,10.65
2022-12-09T10:32:48.357Z,10.30
2022-12-09T10:35:30.805Z,10.05
2022-12-09T10:38:11.126Z,10.77
2022-12-09T10:40:46.129Z,11.95
2022-12-09T10:43:35.693Z,11.82
2022-12-09T10:46:21.005Z,12.95
2022-12-09T10:48:49.267Z,13.55
2022-12-09T10:51:25.891Z,14.75
2022-12-09T10:54:00.912Z,13.80
2022-12-09T10:56:32.528Z,13.60
2022-12-09T10:59:18.207Z,14.05
2022-12-09T11:02:08.828Z,13.02
2022-12-09T11:04:39.586Z,16.88
2022-12-09T11:07:07.534Z,17.15
2022-12-09T11:09:38.018Z,22.80
2022-12-09T11:12:15.104Z,13.35
2022-12-09T11:14:52.578Z,12.63
2022-12-09T11:17:43.148Z,12.90
2022-12-09T11:20:22.862Z,12.52
2022-12-09T11:23:06.437Z,11.98
2022-12-09T11:25:36.247Z,13.15
2022-12-09T11:28:16.533Z,13.07
2022-12-09T11:31:28.335Z,12.65
2022-12-09T11:33:54.419Z,11.70
2022-12-09T11:36:36.899Z,15.45
2022-12-09T11:39:21.771Z,12.70
2022-12-09T11:42:16.645Z,13.95
2022-12-09T11:45:02.435Z,13.45
2022-12-09T11:48:04.619Z,11.82
2022-12-09T11:50:33.259Z,11.98
2022-12-09T11:53:07.656Z,11.77
2022-12-09T11:55:41.906Z,14.43
2022-12-09T11:58:15.938Z,16.80
2022-12-09T12:00:51.207Z,14.55
2022-12-09T12:03:25.262Z,14.20
2022-12-09T12:05:57.191Z,13.95
2022-12-09T12:08:31.740Z,14.10
2022-12-09T12:11:15.579Z,15.45
2022-12-09T12:14:01.098Z,13.82
2022-12-09T12:16:40.171Z,12.50
2022-12-09T12:19:23.911Z,12.38
2022-12-09T12:22:14.728Z,11.63
2022-12-09T12:25:17.104Z,11.82
2022-12-09T12:28:20.111Z,11.48
2022-12-09T12:31:22.113Z,12.85
2022-12-09T12:34:25.074Z,13.85
2022-12-09T12:37:21.686Z,11.88
2022-12-09T12:39:52.511Z,11.00
2022-12-09T12:43:07.011Z,8.25
2022-12-09T12:46:16.514Z,7.75
2022-12-09T12:49:11.928Z,9.30
2022-12-09T12:52:46.957Z,9.30
2022-12-09T12:55:30.072Z,9.10
2022-12-09T12:57:57.243Z,10.05
2022-12-09T13:00:30.164Z,10.23
2022-12-09T13:03:20.079Z,10.18
2022-12-09T13:05:51.391Z,9.55
2022-12-09T13:08:47.287Z,10.25
2022-12-09T13:11:33.281Z,10.10
2022-12-09T13:14:07.097Z,9.93
2022-12-09T13:16:45.318Z,10.88
2022-12-09T13:19:27.054Z,10.38
2022-12-09T13:21:55.080Z,11.40
2022-12-09T13:24:32.233Z,11.43
2022-12-09T13:27:03.237Z,9.77
2022-12-09T13:29:43.673Z,8.43
2022-12-09T13:32:16.934Z,8.73
2022-12-09T13:34:52.557Z,8.88
2022-12-09T13:37:42.763Z,10.38
2022-12-09T13:40:37.671Z,8.88
2022-12-09T13:43:12.698Z,9.05
2022-12-09T13:45:45.173Z,10.25
2022-12-09T13:48:16.957Z,10.75
2022-12-09T13:50:57.411Z,10.20
2022-12-09T13:53:45.485Z,10.80
2022-12-09T13:56:17.461Z,8.38
2022-12-09T13:59:15.457Z,7.70
2022-12-09T14:01:57.528Z,7.47
2022-12-09T14:07:35.529Z,8.52
2022-12-09T14:10:04.518Z,14.25
2022-12-09T14:12:32.902Z,8.80
2022-12-09T14:15:21.855Z,13.07
2022-12-09T14:17:50.787Z,31.00
2022-12-09T14:20:29.133Z,29.33
2022-12-09T14:23:09.690Z,12.43
2022-12-09T14:25:37.481Z,14.70
2022-12-09T14:28:10.615Z,10.85
2022-12-09T14:31:03.401Z,9.38
2022-12-09T14:33:46.303Z,10.50
2022-12-09T14:36:13.907Z,11.02
2022-12-09T14:39:27.805Z,12.13
2022-12-09T14:42:02.021Z,11.00
2022-12-09T14:44:43.916Z,12.32
2022-12-09T14:47:21.083Z,14.70
2022-12-09T14:49:50.823Z,17.02
2022-12-09T14:52:30.206Z,17.05
2022-12-09T14:55:01.941Z,18.02
2022-12-09T14:57:44.101Z,20.05
2022-12-09T15:00:45.442Z,18.30
2022-12-09T15:03:33.042Z,20.20
2022-12-09T15:06:11.836Z,19.23
2022-12-09T15:08:41.210Z,17.60
2022-12-09T15:11:34.114Z,18.20
2022-12-09T15:14:26.062Z,17.52
2022-12-09T15:16:58.257Z,19.10
2022-12-09T15:19:59.325Z,20.83
2022-12-09T15:22:24.176Z,23.70
2022-12-09T15:24:52.698Z,18.80
2022-12-09T15:27:25.890Z,18.00
2022-12-09T15:29:54.353Z,20.10
2022-12-09T15:32:26.176Z,28.77
2022-12-09T15:34:57.107Z,24.50
2022-12-09T15:37:28.558Z,17.50
2022-12-09T15:40:02.484Z,20.17
2022-12-09T15:42:34.298Z,21.15
2022-12-09T15:45:06.684Z,21.05
2022-12-09T15:47:54.790Z,20.17
2022-12-09T15:50:27.892Z,24.48
2022-12-09T15:53:00.784Z,21.83
2022-12-09T15:55:55.059Z,26.90
2022-12-09T15:58:27.487Z,20.95
2022-12-09T16:00:55.691Z,23.17
2022-12-09T16:03:28.255Z,24.80
2022-12-09T16:06:01.411Z,26.02
2022-12-09T16:08:44.191Z,23.23
2022-12-09T16:11:12.895Z,22.75
2022-12-09T16:14:06.731Z,25.20
2022-12-09T16:17:03.892Z,23.58
2022-12-09T16:19:33.485Z,24.15
2022-12-09T16:22:17.870Z,23.30
2022-12-09T16:27:39.739Z,24.98
2022-12-09T16:30:14.671Z,26.00
2022-12-09T16:32:50.281Z,26.55
2022-12-09T16:35:17.442Z,31.40
2022-12-09T16:37:56.996Z,28.42
2022-12-09T16:40:24.916Z,35.53
2022-12-09T16:43:16.944Z,26.45
2022-12-09T16:45:56.547Z,25.95
2022-12-09T16:48:26.970Z,25.33
2022-12-09T16:51:12.446Z,25.02
2022-12-09T16:53:49.222Z,25.67
2022-12-09T16:56:21.959Z,26.52
2022-12-09T16:58:49.671Z,24.67
2022-12-09T17:01:19.723Z,26.40
2022-12-09T17:03:53.730Z,23.85
2022-12-09T17:06:21.841Z,24.77
2022-12-09T17:08:49.196Z,26.35
2022-12-09T17:11:17.782Z,25.20
2022-12-09T17:13:45.094Z,26.95
2022-12-09T17:16:12.915Z,28.75
2022-12-09T17:18:40.400Z,31.33
2022-12-09T17:21:11.415Z,27.15
2022-12-09T17:23:40.459Z,28.80
2022-12-09T17:26:11.139Z,29.88
2022-12-09T17:28:40.184Z,28.92
2022-12-09T17:31:19.912Z,30.17
2022-12-09T17:33:47.379Z,32.28
2022-12-09T17:36:16.489Z,33.03
2022-12-09T17:38:44.392Z,33.88
2022-12-09T17:41:15.816Z,33.03
2022-12-09T17:43:43.362Z,33.97
2022-12-09T17:46:11.910Z,35.17
2022-12-09T17:48:40.163Z,35.75
2022-12-09T17:51:09.461Z,38.70
2022-12-09T17:53:39.471Z,39.00
2022-12-09T17:56:20.019Z,36.38
2022-12-09T17:58:54.835Z,33.42
2022-12-09T18:01:23.829Z,33.53
2022-12-09T18:03:56.814Z,32.03
2022-12-09T18:06:27.328Z,29.65
2022-12-09T18:08:54.728Z,33.22
2022-12-09T18:11:22.503Z,29.02
2022-12-09T18:13:50.808Z,28.48
2022-12-09T18:16:18.796Z,31.10
2022-12-09T18:18:46.463Z,31.70
2022-12-09T18:21:16.290Z,30.95
2022-12-09T18:23:44.064Z,31.75
2022-12-09T18:26:14.895Z,32.25
2022-12-09T18:28:42.838Z,29.17
2022-12-09T18:31:13.645Z,28.83
2022-12-09T18:33:42.051Z,28.02
2022-12-09T18:36:12.215Z,29.23
2022-12-09T18:38:40.416Z,27.08
2022-12-09T18:41:23.718Z,27.65
2022-12-09T18:43:52.801Z,24.67
2022-12-09T18:46:25.656Z,25.67
2022-12-09T18:49:24.040Z,23.95
2022-12-09T18:51:52.666Z,24.40
2022-12-09T18:54:23.561Z,24.50
2022-12-09T18:56:51.969Z,26.70
2022-12-09T18:59:21.750Z,24.17
2022-12-09T19:01:49.311Z,24.35
2022-12-09T19:04:23.283Z,27.25
2022-12-09T19:06:53.153Z,27.05
2022-12-09T19:09:23.493Z,30.92
2022-12-09T19:11:52.070Z,29.38
2022-12-09T19:14:22.463Z,25.02
2022-12-09T19:16:51.606Z,23.30
2022-12-09T19:19:21.395Z,23.63
2022-12-09T19:21:48.920Z,24.15
2022-12-09T19:24:28.399Z,24.38
2022-12-09T19:26:57.751Z,22.55
2022-12-09T19:29:27.974Z,24.08
2022-12-09T19:32:00.025Z,23.55
2022-12-09T19:36:59.875Z,21.65
2022-12-09T19:39:31.286Z,21.38
2022-12-09T19:41:59.577Z,21.98
2022-12-09T19:47:15.137Z,21.08
2022-12-09T19:49:44.322Z,20.90
2022-12-09T19:52:12.520Z,22.02
2022-12-09T19:54:39.962Z,19.42
2022-12-09T19:57:07.894Z,19.98
2022-12-09T19:59:35.912Z,21.05
2022-12-09T20:02:03.855Z,20.65
2022-12-09T20:04:49.203Z,21.40
2022-12-09T20:07:18.194Z,22.60
2022-12-09T20:09:46.195Z,22.20
2022-12-09T20:12:14.525Z,23.15
2022-12-09T20:14:43.122Z,23.70
2022-12-09T20:17:10.631Z,21.60
2022-12-09T20:19:39.018Z,24.70
2022-12-09T20:22:06.679Z,24.10
2022-12-09T20:24:34.178Z,25.70
2022-12-09T20:27:01.610Z,26.80
2022-12-09T20:29:33.890Z,25.90
2022-12-09T20:32:04.831Z,23.45
2022-12-09T20:34:32.673Z,25.67
2022-12-09T20:37:00.698Z,27.27
2022-12-09T20:39:28.675Z,26.17
2022-12-09T20:41:56.004Z,23.85
2022-12-09T20:44:24.279Z,24.48
2022-12-09T20:46:52.903Z,23.35
2022-12-09T20:49:26.109Z,24.90
2022-12-09T20:51:53.488Z,26.73
2022-12-09T20:54:21.283Z,26.05
2022-12-09T20:56:48.968Z,24.70
2022-12-09T20:59:16.474Z,22.98
2022-12-09T21:01:45.758Z,24.77
2022-12-09T21:04:14.197Z,24.15
2022-12-09T21:06:42.512Z,25.52
2022-12-09T21:09:14.784Z,26.30
2022-12-09T21:11:42.232Z,27.35
2022-12-09T21:14:11.321Z,26.23
2022-12-09T21:16:41.856Z,28.33
2022-12-09T21:19:13.778Z,25.67
2022-12-09T21:24:11.996Z,23.27
2022-12-09T21:26:40.355Z,24.95
2022-12-09T21:29:10.324Z,24.95
2022-12-09T21:31:40.783Z,26.50
2022-12-09T21:34:09.839Z,25.35
2022-12-09T21:36:39.847Z,24.98
2022-12-09T21:39:09.145Z,24.58
2022-12-09T21:41:36.775Z,24.15
2022-12-09T21:44:05.896Z,23.60
2022-12-09T21:46:36.286Z,23.50
2022-12-09T21:49:05.716Z,24.30
2022-12-09T21:51:34.194Z,23.63
2022-12-09T21:54:02.810Z,25.58
2022-12-09T21:56:33.164Z,24.45
2022-12-09T21:59:01.322Z,24.33
2022-12-09T22:01:37.494Z,26.48
2022-12-09T22:04:07.954Z,25.85
2022-12-09T22:06:35.656Z,25.10
2022-12-09T22:09:05.319Z,26.10
2022-12-09T22:11:36.000Z,26.15
2022-12-09T22:14:03.903Z,26.13
2022-12-09T22:16:36.176Z,25.55
2022-12-09T22:19:06.111Z,26.00
2022-12-09T22:21:34.221Z,25.88
2022-12-09T22:24:03.983Z,25.10
2022-12-09T22:26:32.376Z,26.52
2022-12-09T22:29:01.706Z,26.75
